createdAt,value
2022-12-07T00:01:15.429Z,33.97
2022-12-07T00:03:43.796Z,25.92
2022-12-07T00:06:12.497Z,24.65
2022-12-07T00:08:39.703Z,24.92
2022-12-07T00:11:10.843Z,24.15
2022-12-07T00:13:38.525Z,22.63
2022-12-07T00:16:08.288Z,22.42
2022-12-07T00:18:35.272Z,21.17
2022-12-07T00:21:08.179Z,24.25
2022-12-07T00:23:35.226Z,23.92
2022-12-07T00:26:11.516Z,23.90
2022-12-07T00:28:38.272Z,22.45
2022-12-07T00:33:33.584Z,21.90
2022-12-07T00:36:01.352Z,24.17
2022-12-07T00:38:32.692Z,24.42
2022-12-07T00:41:04.043Z,21.88
2022-12-07T00:43:30.923Z,26.13
2022-12-07T00:45:57.921Z,25.63
2022-12-07T00:48:25.006Z,25.10
2022-12-07T00:50:52.085Z,24.33
2022-12-07T00:53:19.174Z,24.33
2022-12-07T00:55:45.987Z,23.40
2022-12-07T00:58:12.791Z,24.48
2022-12-07T01:03:09.253Z,24.10
2022-12-07T01:05:36.263Z,22.42
2022-12-07T01:08:03.749Z,27.65
2022-12-07T01:10:32.458Z,26.88
2022-12-07T01:12:59.867Z,26.73
2022-12-07T01:15:27.038Z,28.50
2022-12-07T01:17:55.558Z,27.48
2022-12-07T01:20:22.763Z,29.40
2022-12-07T01:22:49.744Z,27.20
2022-12-07T01:25:16.541Z,27.98
2022-12-07T01:30:11.927Z,26.20
2022-12-07T01:32:38.604Z,26.52
2022-12-07T01:37:39.546Z,22.00
2022-12-07T01:40:08.288Z,26.90
2022-12-07T01:42:35.835Z,29.70
2022-12-07T01:45:37.214Z,27.58
2022-12-07T01:48:05.864Z,28.35
2022-12-07T01:50:32.868Z,31.50
2022-12-07T01:53:01.924Z,28.42
2022-12-07T01:55:28.764Z,29.17
2022-12-07T01:57:56.514Z,26.92
2022-12-07T02:00:23.565Z,30.85
2022-12-07T02:03:08.095Z,29.85
2022-12-07T02:05:36.360Z,27.65
2022-12-07T02:08:03.908Z,27.58
2022-12-07T02:10:32.500Z,30.73
2022-12-07T02:13:01.594Z,28.98
2022-12-07T02:15:54.826Z,30.45
2022-12-07T02:18:33.432Z,28.13
2022-12-07T02:21:03.088Z,31.42
2022-12-07T02:23:51.366Z,31.55
2022-12-07T02:26:40.341Z,30.88
2022-12-07T02:29:20.297Z,28.90
2022-12-07T02:32:14.160Z,26.50
2022-12-07T02:34:51.107Z,24.98
2022-12-07T02:37:30.101Z,28.95
2022-12-07T02:40:02.739Z,28.75
2022-12-07T02:42:39.137Z,27.48
2022-12-07T02:45:08.047Z,27.90
2022-12-07T02:47:37.020Z,28.48
2022-12-07T02:50:06.216Z,29.55
2022-12-07T02:52:33.117Z,32.90
2022-12-07T02:55:00.272Z,30.58
2022-12-07T02:58:00.792Z,30.80
2022-12-07T03:00:27.601Z,27.80
2022-12-07T03:06:00.629Z,31.27
2022-12-07T03:08:36.191Z,28.15
2022-12-07T03:11:18.968Z,31.27
2022-12-07T03:13:54.083Z,29.73
2022-12-07T03:16:28.051Z,30.45
2022-12-07T03:19:14.542Z,29.55
2022-12-07T03:21:45.422Z,32.38
2022-12-07T03:24:19.590Z,29.23
2022-12-07T03:26:52.563Z,30.20
2022-12-07T03:29:29.196Z,29.80
2022-12-07T03:32:26.785Z,30.45
2022-12-07T03:35:00.086Z,29.73
2022-12-07T03:37:51.750Z,28.20
2022-12-07T03:40:31.508Z,26.30
2022-12-07T03:43:00.840Z,27.55
2022-12-07T03:45:39.501Z,27.27
2022-12-07T03:48:10.895Z,29.27
2022-12-07T03:50:37.593Z,30.23
2022-12-07T03:53:18.561Z,27.40
2022-12-07T03:55:47.822Z,29.20
2022-12-07T03:58:18.727Z,26.55
2022-12-07T04:00:47.652Z,27.90
2022-12-07T04:03:14.357Z,25.50
2022-12-07T04:08:08.422Z,25.47
2022-12-07T04:10:35.654Z,26.73
2022-12-07T04:13:02.481Z,28.33
2022-12-07T04:15:29.374Z,27.50
2022-12-07T04:17:56.041Z,28.10
2022-12-07T04:20:23.123Z,28.60
2022-12-07T04:22:49.805Z,27.50
2022-12-07T04:25:16.569Z,27.85
2022-12-07T04:30:10.700Z,26.92
2022-12-07T04:32:37.843Z,26.23
2022-12-07T04:35:05.486Z,25.05
2022-12-07T04:37:32.135Z,27.27
2022-12-07T04:39:59.033Z,26.40
2022-12-07T04:42:25.839Z,28.80
2022-12-07T04:44:52.497Z,24.20
2022-12-07T04:49:45.852Z,29.02
2022-12-07T04:54:39.119Z,27.17
2022-12-07T04:57:05.851Z,28.95
2022-12-07T05:01:59.221Z,25.95
2022-12-07T05:06:52.941Z,27.45
2022-12-07T05:11:46.211Z,27.00
2022-12-07T05:16:42.462Z,28.48
2022-12-07T05:19:10.442Z,27.92
2022-12-07T05:21:37.907Z,31.67
2022-12-07T05:24:05.607Z,28.25
2022-12-07T05:26:32.360Z,28.23
2022-12-07T05:31:27.203Z,28.70
2022-12-07T05:33:54.484Z,29.38
2022-12-07T05:36:21.768Z,28.60
2022-12-07T05:38:48.660Z,28.95
2022-12-07T05:41:35.869Z,30.42
2022-12-07T05:44:03.033Z,31.45
2022-12-07T05:46:29.772Z,30.50
2022-12-07T05:51:23.143Z,27.08
2022-12-07T05:56:16.670Z,27.87
2022-12-07T05:59:02.282Z,28.67
2022-12-07T06:01:29.168Z,28.17
2022-12-07T06:03:55.859Z,29.15
2022-12-07T06:06:22.612Z,29.88
2022-12-07T06:08:49.392Z,27.30
2022-12-07T06:14:01.717Z,27.20
2022-12-07T06:16:28.478Z,31.95
2022-12-07T06:18:55.301Z,29.58
2022-12-07T06:23:48.984Z,27.08
2022-12-07T06:26:15.703Z,31.05
2022-12-07T06:31:13.642Z,29.38
2022-12-07T06:33:41.681Z,34.90
2022-12-07T06:36:09.304Z,32.13
2022-12-07T06:38:36.573Z,32.67
2022-12-07T06:41:03.662Z,30.50
2022-12-07T06:43:31.067Z,32.13
2022-12-07T06:45:57.860Z,29.15
2022-12-07T06:48:24.851Z,34.83
2022-12-07T06:50:55.159Z,31.25
2022-12-07T06:53:23.296Z,33.42
2022-12-07T06:55:50.348Z,29.50
2022-12-07T06:58:17.814Z,31.70
2022-12-07T07:00:45.705Z,35.45
2022-12-07T07:03:12.720Z,33.42
2022-12-07T07:05:39.479Z,34.40
2022-12-07T07:10:50.140Z,32.25
2022-12-07T07:15:43.553Z,34.22
2022-12-07T07:20:39.064Z,32.75
2022-12-07T07:23:06.247Z,32.58
2022-12-07T07:25:33.831Z,32.33
2022-12-07T07:28:00.555Z,32.83
2022-12-07T07:30:27.841Z,32.40
2022-12-07T07:32:59.432Z,34.45
2022-12-07T07:35:30.805Z,32.45
2022-12-07T07:37:57.480Z,33.97
2022-12-07T07:40:24.784Z,35.90
2022-12-07T07:42:52.978Z,36.00
2022-12-07T07:45:21.522Z,34.22
2022-12-07T07:47:49.050Z,31.40
2022-12-07T07:50:16.944Z,33.70
2022-12-07T07:52:44.318Z,35.70
2022-12-07T07:55:11.639Z,37.65
2022-12-07T07:57:39.791Z,37.83
2022-12-07T08:00:11.114Z,36.70
2022-12-07T08:02:41.344Z,35.40
2022-12-07T08:05:08.863Z,36.58
2022-12-07T08:07:35.880Z,33.92
2022-12-07T08:10:03.350Z,37.72
2022-12-07T08:12:30.246Z,34.20
2022-12-07T08:17:23.530Z,34.13
2022-12-07T08:22:16.764Z,33.25
2022-12-07T08:24:43.700Z,36.80
2022-12-07T08:27:10.822Z,35.83
2022-12-07T08:29:37.496Z,36.30
2022-12-07T08:34:37.799Z,34.35
2022-12-07T08:37:04.670Z,33.88
2022-12-07T08:39:32.650Z,32.78
2022-12-07T08:41:59.649Z,33.25
2022-12-07T08:44:26.549Z,35.30
2022-12-07T08:46:59.461Z,33.22
2022-12-07T08:49:33.087Z,36.50
2022-12-07T08:51:59.808Z,36.47
2022-12-07T08:54:26.852Z,35.85
2022-12-07T08:56:59.432Z,33.55
2022-12-07T08:59:28.375Z,30.10
2022-12-07T09:01:55.472Z,34.13
2022-12-07T09:04:22.412Z,35.78
2022-12-07T09:06:49.561Z,34.83
2022-12-07T09:09:16.637Z,35.38
2022-12-07T09:11:43.388Z,34.88
2022-12-07T09:14:10.236Z,34.35
2022-12-07T09:19:03.760Z,32.65
2022-12-07T09:21:30.692Z,34.75
2022-12-07T09:23:57.655Z,33.53
2022-12-07T09:26:24.350Z,36.13
2022-12-07T09:28:51.020Z,38.65
2022-12-07T09:33:57.963Z,32.08
2022-12-07T09:36:25.673Z,34.78
2022-12-07T09:38:52.715Z,33.35
2022-12-07T09:41:20.348Z,37.13
2022-12-07T09:43:47.892Z,34.95
2022-12-07T09:46:17.760Z,34.97
2022-12-07T09:48:45.782Z,35.42
2022-12-07T09:51:25.560Z,33.53
2022-12-07T09:53:54.597Z,36.05
2022-12-07T09:56:22.733Z,38.00
2022-12-07T09:58:50.402Z,35.05
2022-12-07T10:01:22.425Z,34.75
2022-12-07T10:03:56.140Z,32.17
2022-12-07T10:06:24.649Z,31.17
2022-12-07T10:08:51.369Z,29.38
2022-12-07T10:13:49.751Z,29.13
2022-12-07T10:16:25.801Z,31.20
2022-12-07T10:18:53.264Z,30.65
2022-12-07T10:21:25.151Z,32.67
2022-12-07T10:24:15.585Z,27.83
2022-12-07T10:26:54.571Z,30.85
2022-12-07T10:29:47.718Z,29.90
2022-12-07T10:32:17.520Z,28.83
2022-12-07T10:34:48.775Z,27.75
2022-12-07T10:37:21.351Z,29.38
2022-12-07T10:39:53.411Z,25.13
2022-12-07T10:42:28.834Z,26.27
2022-12-07T10:45:18.773Z,21.63
2022-12-07T10:47:57.690Z,20.30
2022-12-07T10:50:57.839Z,21.75
2022-12-07T10:53:27.243Z,19.27
2022-12-07T10:56:12.472Z,17.13
2022-12-07T10:59:00.963Z,16.20
2022-12-07T11:01:34.161Z,18.20
2022-12-07T11:04:12.151Z,19.95
2022-12-07T11:07:04.641Z,19.48
2022-12-07T11:12:52.511Z,19.30
2022-12-07T11:15:23.682Z,18.40
2022-12-07T11:18:00.934Z,19.85
2022-12-07T11:20:40.405Z,18.17
2022-12-07T11:23:37.946Z,20.40
2022-12-07T11:26:19.552Z,18.35
2022-12-07T11:29:19.992Z,17.17
2022-12-07T11:32:16.793Z,18.52
2022-12-07T11:35:03.333Z,18.40
2022-12-07T11:37:38.145Z,18.15
2022-12-07T11:40:22.162Z,16.70
2022-12-07T11:43:18.123Z,16.92
2022-12-07T11:45:53.095Z,17.58
2022-12-07T11:48:39.188Z,18.30
2022-12-07T11:51:10.535Z,18.10
2022-12-07T11:53:53.829Z,18.02
2022-12-07T11:56:23.029Z,20.00
2022-12-07T11:59:02.371Z,19.13
2022-12-07T12:01:34.271Z,17.70
2022-12-07T12:04:10.444Z,19.42
2022-12-07T12:06:42.984Z,22.27
2022-12-07T12:09:40.314Z,20.58
2022-12-07T12:16:28.256Z,17.58
2022-12-07T12:19:05.656Z,17.85
2022-12-07T12:24:24.671Z,17.63
2022-12-07T12:27:13.547Z,17.00
2022-12-07T12:29:42.814Z,17.30
2022-12-07T12:32:21.030Z,15.68
2022-12-07T12:35:21.390Z,18.27
2022-12-07T12:37:48.691Z,16.08
2022-12-07T12:40:15.436Z,16.17
2022-12-07T12:42:48.115Z,14.32
2022-12-07T12:45:22.185Z,16.15
2022-12-07T12:48:05.670Z,17.75
2022-12-07T12:50:38.546Z,18.02
2022-12-07T12:53:21.950Z,16.92
2022-12-07T12:56:00.796Z,16.77
2022-12-07T12:58:33.527Z,16.95
2022-12-07T13:01:28.330Z,17.67
2022-12-07T13:03:56.821Z,16.40
2022-12-07T13:06:27.203Z,19.40
2022-12-07T13:08:57.119Z,18.15
2022-12-07T13:11:37.752Z,16.77
2022-12-07T13:14:41.030Z,17.73
2022-12-07T13:17:13.282Z,17.10
2022-12-07T13:19:43.110Z,17.00
2022-12-07T13:22:31.512Z,18.30
2022-12-07T13:25:32.594Z,18.33
2022-12-07T13:28:11.903Z,15.77
2022-12-07T13:31:05.105Z,19.08
2022-12-07T13:33:35.264Z,16.60
2022-12-07T13:36:02.429Z,16.42
2022-12-07T13:38:38.169Z,18.50
2022-12-07T13:41:04.956Z,16.45
2022-12-07T13:45:59.976Z,15.98
2022-12-07T13:48:33.812Z,15.48
2022-12-07T13:51:04.008Z,15.25
2022-12-07T13:53:31.591Z,15.68
2022-12-07T13:56:00.450Z,16.10
2022-12-07T13:58:31.577Z,15.00
2022-12-07T14:00:59.151Z,14.30
2022-12-07T14:03:32.718Z,13.85
2022-12-07T14:06:19.206Z,14.57
2022-12-07T14:08:46.334Z,15.35
2022-12-07T14:11:21.129Z,14.73
2022-12-07T14:14:01.391Z,13.93
2022-12-07T14:16:38.841Z,13.63
2022-12-07T14:19:26.671Z,14.15
2022-12-07T14:24:43.759Z,12.45
2022-12-07T14:27:26.836Z,13.27
2022-12-07T14:29:53.786Z,13.57
2022-12-07T14:32:28.941Z,14.13
2022-12-07T14:34:58.188Z,14.23
2022-12-07T14:37:25.803Z,14.00
2022-12-07T14:39:52.857Z,13.15
2022-12-07T14:42:20.531Z,13.20
2022-12-07T14:44:47.282Z,12.82
2022-12-07T14:50:03.411Z,12.60
2022-12-07T14:55:26.063Z,12.85
2022-12-07T14:57:53.021Z,12.57
2022-12-07T15:00:21.856Z,12.45
2022-12-07T15:02:50.150Z,12.82
2022-12-07T15:05:17.952Z,12.15
2022-12-07T15:07:46.247Z,11.65
2022-12-07T15:10:24.378Z,11.48
2022-12-07T15:12:52.240Z,12.70
2022-12-07T15:15:19.121Z,11.95
2022-12-07T15:17:45.975Z,12.65
2022-12-07T15:22:40.944Z,12.63
2022-12-07T15:25:08.957Z,13.07
2022-12-07T15:27:35.924Z,11.32
2022-12-07T15:32:29.384Z,10.63
2022-12-07T15:37:22.809Z,11.63
2022-12-07T15:42:16.200Z,10.70
2022-12-07T15:45:01.874Z,11.77
2022-12-07T15:47:28.924Z,12.40
2022-12-07T15:49:58.571Z,12.52
2022-12-07T15:52:25.411Z,12.48
2022-12-07T15:57:24.991Z,12.20
2022-12-07T15:59:52.369Z,12.77
2022-12-07T16:02:19.133Z,13.65
2022-12-07T16:07:15.404Z,13.70
2022-12-07T16:09:43.208Z,13.50
2022-12-07T16:12:11.424Z,15.30
2022-12-07T16:14:39.237Z,15.15
2022-12-07T16:17:07.194Z,12.73
2022-12-07T16:19:38.109Z,13.15
2022-12-07T16:22:05.943Z,12.32
2022-12-07T16:24:33.419Z,13.02
2022-12-07T16:27:00.245Z,11.88
2022-12-07T16:31:53.679Z,13.77
2022-12-07T16:37:04.222Z,12.98
2022-12-07T16:39:32.216Z,13.52
2022-12-07T16:41:59.018Z,15.05
2022-12-07T16:46:52.720Z,12.93
2022-12-07T16:52:03.071Z,12.90
2022-12-07T16:54:37.623Z,13.35
2022-12-07T16:57:04.304Z,12.77
2022-12-07T16:59:31.168Z,14.25
2022-12-07T17:01:57.859Z,17.45
2022-12-07T17:06:51.628Z,13.57
2022-12-07T17:09:21.326Z,14.18
2022-12-07T17:11:49.101Z,14.25
2022-12-07T17:14:34.588Z,15.05
2022-12-07T17:17:01.471Z,13.68
2022-12-07T17:19:28.201Z,13.70
2022-12-07T17:21:55.837Z,12.80
2022-12-07T17:24:22.796Z,15.18
2022-12-07T17:26:49.602Z,14.43
2022-12-07T17:29:18.462Z,12.50
2022-12-07T17:31:51.387Z,15.57
2022-12-07T17:34:19.639Z,14.43
2022-12-07T17:36:47.185Z,16.48
2022-12-07T17:39:17.836Z,16.15
2022-12-07T17:42:03.668Z,14.77
2022-12-07T17:44:30.566Z,15.13
2022-12-07T17:47:02.468Z,15.32
2022-12-07T17:49:29.723Z,14.25
2022-12-07T17:52:15.559Z,16.65
2022-12-07T17:54:42.500Z,16.38
2022-12-07T17:57:09.529Z,14.95
2022-12-07T17:59:36.396Z,12.90
2022-12-07T18:02:03.394Z,14.20
2022-12-07T18:04:30.201Z,14.18
2022-12-07T18:09:23.872Z,15.48
2022-12-07T18:11:50.844Z,14.73
2022-12-07T18:14:17.728Z,13.68
2022-12-07T18:16:46.286Z,12.48
2022-12-07T18:19:14.487Z,15.90
2022-12-07T18:21:41.691Z,14.73
2022-12-07T18:24:11.684Z,16.38
2022-12-07T18:26:39.400Z,14.23
2022-12-07T18:29:07.251Z,14.68
2022-12-07T18:31:35.803Z,15.05
2022-12-07T18:34:05.252Z,13.95
2022-12-07T18:36:32.329Z,14.90
2022-12-07T18:38:59.188Z,14.60
2022-12-07T18:41:25.943Z,16.02
2022-12-07T18:46:21.172Z,12.57
2022-12-07T18:48:50.468Z,13.18
2022-12-07T18:51:18.489Z,14.93
2022-12-07T18:53:45.671Z,14.95
2022-12-07T18:56:24.427Z,14.32
2022-12-07T18:59:12.131Z,13.35
2022-12-07T19:01:39.744Z,14.93
2022-12-07T19:04:06.775Z,16.42
2022-12-07T19:06:33.639Z,14.85
2022-12-07T19:09:00.704Z,14.23
2022-12-07T19:11:49.253Z,13.60
2022-12-07T19:14:28.047Z,16.20
2022-12-07T19:17:02.060Z,16.00
2022-12-07T19:19:35.926Z,12.75
2022-12-07T19:22:03.855Z,13.68
2022-12-07T19:24:31.015Z,14.73
2022-12-07T19:26:58.551Z,15.35
2022-12-07T19:29:27.924Z,13.63
2022-12-07T19:31:54.792Z,17.67
2022-12-07T19:34:21.612Z,18.02
2022-12-07T19:36:48.861Z,15.52
2022-12-07T19:39:16.094Z,14.82
2022-12-07T19:41:44.194Z,16.13
2022-12-07T19:44:16.554Z,16.38
2022-12-07T19:46:46.504Z,17.45
2022-12-07T19:49:15.979Z,15.77
2022-12-07T19:51:48.032Z,14.80
2022-12-07T19:54:17.266Z,13.90
2022-12-07T19:56:44.718Z,13.93
2022-12-07T19:59:13.092Z,13.68
2022-12-07T20:01:41.039Z,15.57
2022-12-07T20:04:11.442Z,14.40
2022-12-07T20:06:38.927Z,13.77
2022-12-07T20:09:05.980Z,14.95
2022-12-07T20:11:51.431Z,12.77
2022-12-07T20:14:18.133Z,12.27
2022-12-07T20:16:45.685Z,13.02
2022-12-07T20:19:14.194Z,12.30
2022-12-07T20:21:42.616Z,14.43
2022-12-07T20:24:12.800Z,13.85
2022-12-07T20:26:40.546Z,13.05
2022-12-07T20:29:17.906Z,13.95
2022-12-07T20:31:47.189Z,14.32
2022-12-07T20:34:14.378Z,15.02
2022-12-07T20:36:41.245Z,14.70
2022-12-07T20:39:08.481Z,13.80
2022-12-07T20:41:54.150Z,14.00
2022-12-07T20:44:20.910Z,14.88
2022-12-07T20:49:16.873Z,15.07
2022-12-07T20:51:44.537Z,14.90
2022-12-07T20:54:12.324Z,16.77
2022-12-07T20:56:39.770Z,15.20
2022-12-07T20:59:09.784Z,15.35
2022-12-07T21:01:37.161Z,14.00
2022-12-07T21:04:04.106Z,16.08
2022-12-07T21:06:31.141Z,14.63
2022-12-07T21:08:59.980Z,16.00
2022-12-07T21:11:28.680Z,14.38
2022-12-07T21:13:55.531Z,13.52
2022-12-07T21:16:32.173Z,13.30
2022-12-07T21:19:02.482Z,14.57
2022-12-07T21:21:30.926Z,14.88
2022-12-07T21:24:02.524Z,13.07
2022-12-07T21:26:31.122Z,13.77
2022-12-07T21:28:58.016Z,14.63
2022-12-07T21:31:25.536Z,13.98
2022-12-07T21:33:52.342Z,15.25
2022-12-07T21:38:47.408Z,12.13
2022-12-07T21:41:29.846Z,14.18
2022-12-07T21:43:57.364Z,15.05
2022-12-07T21:46:32.990Z,14.15
2022-12-07T21:49:05.755Z,14.30
2022-12-07T21:51:32.673Z,15.57
2022-12-07T21:54:00.669Z,16.60
2022-12-07T21:56:30.423Z,13.75
2022-12-07T21:59:02.808Z,14.10
2022-12-07T22:01:35.638Z,16.30
2022-12-07T22:04:04.198Z,16.15
2022-12-07T22:06:31.121Z,15.98
2022-12-07T22:08:57.791Z,14.80
2022-12-07T22:11:24.417Z,14.43
2022-12-07T22:16:38.858Z,15.10
2022-12-07T22:19:06.456Z,15.40
2022-12-07T22:21:33.722Z,14.52
2022-12-07T22:24:00.695Z,14.40
2022-12-07T22:26:27.809Z,14.52
2022-12-07T22:28:54.835Z,13.40
2022-12-07T22:31:22.261Z,14.50
2022-12-07T22:33:49.860Z,13.63
2022-12-07T22:36:17.019Z,14.95
2022-12-07T22:38:44.137Z,15.93
2022-12-07T22:41:31.938Z,15.02
2022-12-07T22:43:59.753Z,15.15
2022-12-07T22:46:27.051Z,15.35
2022-12-07T22:48:54.364Z,15.90
2022-12-07T22:51:26.995Z,16.25
2022-12-07T22:53:54.984Z,15.82
2022-12-07T22:56:23.032Z,16.38
2022-12-07T22:58:50.030Z,16.30
2022-12-07T23:01:18.102Z,17.10
2022-12-07T23:03:45.205Z,18.42
2022-12-07T23:06:19.392Z,16.92
2022-12-07T23:08:46.860Z,17.73
2022-12-07T23:11:38.186Z,18.90
2022-12-07T23:14:10.053Z,20.58
2022-12-07T23:16:37.175Z,19.40
2022-12-07T23:19:04.221Z,19.13
2022-12-07T23:21:31.228Z,21.02
2022-12-07T23:23:57.958Z,25.30
2022-12-07T23:28:52.001Z,20.08
2022-12-07T23:31:20.512Z,20.10
2022-12-07T23:33:47.690Z,19.75
2022-12-07T23:36:17.188Z,21.65
2022-12-07T23:38:45.330Z,21.38
2022-12-07T23:41:17.310Z,21.92
2022-12-07T23:43:44.313Z,23.48
2022-12-07T23:46:23.133Z,23.17
2022-12-07T23:48:51.510Z,22.23
2022-12-07T23:51:18.431Z,24.13
2022-12-07T23:53:48.043Z,24.42
2022-12-07T23:56:18.227Z,26.45
2022-12-07T23:58:45.801Z,23.98
